sensor_id;sensor_type;location;lat;lon;timestamp;P1;durP1;ratioP1;P2;durP2;ratioP2
68608;SDS011;55581;46.718;7.690;2024-03-02T00:01:07;2.17;;;0.40;;
68608;SDS011;55581;46.718;7.690;2024-03-02T00:03:36;2.88;;;0.63;;
68608;SDS011;55581;46.718;7.690;2024-03-02T00:06:02;2.53;;;0.40;;
68608;SDS011;55581;46.718;7.690;2024-03-02T00:08:28;3.80;;;1.30;;
68608;SDS011;55581;46.718;7.690;2024-03-02T00:10:57;2.90;;;0.70;;
68608;SDS011;55581;46.718;7.690;2024-03-02T00:13:23;3.08;;;0.38;;
68608;SDS011;55581;46.718;7.690;2024-03-02T00:15:53;1.77;;;0.20;;
68608;SDS011;55581;46.718;7.690;2024-03-02T00:18:41;1.90;;;0.30;;
68608;SDS011;55581;46.718;7.690;2024-03-02T00:21:10;2.72;;;0.32;;
68608;SDS011;55581;46.718;7.690;2024-03-02T00:23:36;3.07;;;0.37;;
68608;SDS011;55581;46.718;7.690;2024-03-02T00:26:02;1.80;;;0.28;;
68608;SDS011;55581;46.718;7.690;2024-03-02T00:31:09;3.10;;;0.20;;
68608;SDS011;55581;46.718;7.690;2024-03-02T00:36:07;2.00;;;0.30;;
68608;SDS011;55581;46.718;7.690;2024-03-02T00:38:33;2.80;;;0.30;;
68608;SDS011;55581;46.718;7.690;2024-03-02T00:41:00;2.45;;;0.57;;
68608;SDS011;55581;46.718;7.690;2024-03-02T00:43:56;3.92;;;1.00;;
68608;SDS011;55581;46.718;7.690;2024-03-02T00:46:35;4.38;;;1.02;;
68608;SDS011;55581;46.718;7.690;2024-03-02T00:49:03;3.60;;;0.67;;
68608;SDS011;55581;46.718;7.690;2024-03-02T00:51:30;2.80;;;0.70;;
68608;SDS011;55581;46.718;7.690;2024-03-02T00:54:01;3.05;;;0.40;;
68608;SDS011;55581;46.718;7.690;2024-03-02T00:56:29;3.08;;;0.60;;
68608;SDS011;55581;46.718;7.690;2024-03-02T00:58:57;3.15;;;0.60;;
68608;SDS011;55581;46.718;7.690;2024-03-02T01:01:23;3.20;;;0.70;;
68608;SDS011;55581;46.718;7.690;2024-03-02T01:03:49;2.90;;;0.57;;
68608;SDS011;55581;46.718;7.690;2024-03-02T01:06:15;3.65;;;0.40;;
68608;SDS011;55581;46.718;7.690;2024-03-02T01:08:43;2.67;;;0.50;;
68608;SDS011;55581;46.718;7.690;2024-03-02T01:11:09;2.60;;;0.50;;
68608;SDS011;55581;46.718;7.690;2024-03-02T01:13:34;3.05;;;0.63;;
68608;SDS011;55581;46.718;7.690;2024-03-02T01:16:02;4.07;;;0.60;;
68608;SDS011;55581;46.718;7.690;2024-03-02T01:18:31;2.53;;;0.40;;
68608;SDS011;55581;46.718;7.690;2024-03-02T01:20:57;3.07;;;0.30;;
68608;SDS011;55581;46.718;7.690;2024-03-02T01:23:23;2.78;;;0.60;;
68608;SDS011;55581;46.718;7.690;2024-03-02T01:25:51;3.03;;;0.85;;
68608;SDS011;55581;46.718;7.690;2024-03-02T01:28:17;2.97;;;0.90;;
68608;SDS011;55581;46.718;7.690;2024-03-02T01:30:44;4.75;;;0.93;;
68608;SDS011;55581;46.718;7.690;2024-03-02T01:33:09;4.07;;;1.15;;
68608;SDS011;55581;46.718;7.690;2024-03-02T01:35:37;3.88;;;1.20;;
68608;SDS011;55581;46.718;7.690;2024-03-02T01:38:03;7.77;;;1.40;;
68608;SDS011;55581;46.718;7.690;2024-03-02T01:40:31;2.65;;;0.60;;
68608;SDS011;55581;46.718;7.690;2024-03-02T01:42:58;3.93;;;1.17;;
68608;SDS011;55581;46.718;7.690;2024-03-02T01:45:24;4.05;;;1.23;;
68608;SDS011;55581;46.718;7.690;2024-03-02T01:47:52;3.50;;;0.60;;
68608;SDS011;55581;46.718;7.690;2024-03-02T01:52:56;3.92;;;0.98;;
68608;SDS011;55581;46.718;7.690;2024-03-02T01:55:22;4.40;;;1.33;;
68608;SDS011;55581;46.718;7.690;2024-03-02T01:57:48;3.65;;;1.20;;
68608;SDS011;55581;46.718;7.690;2024-03-02T02:00:15;4.03;;;1.40;;
68608;SDS011;55581;46.718;7.690;2024-03-02T02:02:41;4.25;;;1.15;;
68608;SDS011;55581;46.718;7.690;2024-03-02T02:05:07;4.73;;;1.10;;
68608;SDS011;55581;46.718;7.690;2024-03-02T02:07:34;4.15;;;1.00;;
68608;SDS011;55581;46.718;7.690;2024-03-02T02:10:00;5.55;;;1.10;;
68608;SDS011;55581;46.718;7.690;2024-03-02T02:12:26;3.88;;;1.10;;
68608;SDS011;55581;46.718;7.690;2024-03-02T02:14:51;5.73;;;1.60;;
68608;SDS011;55581;46.718;7.690;2024-03-02T02:17:17;4.73;;;1.33;;
68608;SDS011;55581;46.718;7.690;2024-03-02T02:19:42;6.13;;;1.73;;
68608;SDS011;55581;46.718;7.690;2024-03-02T02:22:08;4.87;;;1.63;;
68608;SDS011;55581;46.718;7.690;2024-03-02T02:24:40;3.72;;;1.13;;
68608;SDS011;55581;46.718;7.690;2024-03-02T02:27:07;6.70;;;1.45;;
68608;SDS011;55581;46.718;7.690;2024-03-02T02:29:33;3.87;;;1.20;;
68608;SDS011;55581;46.718;7.690;2024-03-02T02:31:58;5.10;;;1.35;;
68608;SDS011;55581;46.718;7.690;2024-03-02T02:34:23;4.70;;;1.30;;
68608;SDS011;55581;46.718;7.690;2024-03-02T02:36:49;3.63;;;1.00;;
68608;SDS011;55581;46.718;7.690;2024-03-02T02:39:17;4.65;;;1.30;;
68608;SDS011;55581;46.718;7.690;2024-03-02T02:41:45;5.03;;;1.50;;
68608;SDS011;55581;46.718;7.690;2024-03-02T02:44:11;3.73;;;1.30;;
68608;SDS011;55581;46.718;7.690;2024-03-02T02:46:38;6.07;;;1.10;;
68608;SDS011;55581;46.718;7.690;2024-03-02T02:49:04;3.85;;;1.10;;
68608;SDS011;55581;46.718;7.690;2024-03-02T02:51:29;4.10;;;1.20;;
68608;SDS011;55581;46.718;7.690;2024-03-02T02:53:54;3.40;;;0.97;;
68608;SDS011;55581;46.718;7.690;2024-03-02T02:56:20;5.47;;;1.20;;
68608;SDS011;55581;46.718;7.690;2024-03-02T02:58:45;3.67;;;1.00;;
68608;SDS011;55581;46.718;7.690;2024-03-02T03:01:11;4.53;;;1.00;;
68608;SDS011;55581;46.718;7.690;2024-03-02T03:03:36;3.73;;;1.27;;
68608;SDS011;55581;46.718;7.690;2024-03-02T03:06:02;3.63;;;1.00;;
68608;SDS011;55581;46.718;7.690;2024-03-02T03:08:27;3.75;;;1.17;;
68608;SDS011;55581;46.718;7.690;2024-03-02T03:10:53;3.00;;;0.93;;
68608;SDS011;55581;46.718;7.690;2024-03-02T03:13:19;3.67;;;1.08;;
68608;SDS011;55581;46.718;7.690;2024-03-02T03:15:44;3.27;;;0.60;;
68608;SDS011;55581;46.718;7.690;2024-03-02T03:18:12;4.03;;;1.05;;
68608;SDS011;55581;46.718;7.690;2024-03-02T03:20:37;3.73;;;1.00;;
68608;SDS011;55581;46.718;7.690;2024-03-02T03:23:03;3.70;;;1.20;;
68608;SDS011;55581;46.718;7.690;2024-03-02T03:25:29;3.22;;;0.85;;
68608;SDS011;55581;46.718;7.690;2024-03-02T03:27:57;4.95;;;1.13;;
68608;SDS011;55581;46.718;7.690;2024-03-02T03:30:26;4.60;;;1.17;;
68608;SDS011;55581;46.718;7.690;2024-03-02T03:32:51;4.10;;;1.20;;
68608;SDS011;55581;46.718;7.690;2024-03-02T03:35:16;3.73;;;1.40;;
68608;SDS011;55581;46.718;7.690;2024-03-02T03:37:43;3.05;;;0.95;;
68608;SDS011;55581;46.718;7.690;2024-03-02T03:40:12;4.50;;;1.23;;
68608;SDS011;55581;46.718;7.690;2024-03-02T03:42:39;5.40;;;1.70;;
68608;SDS011;55581;46.718;7.690;2024-03-02T03:45:04;4.53;;;1.60;;
68608;SDS011;55581;46.718;7.690;2024-03-02T03:47:33;4.28;;;2.03;;
68608;SDS011;55581;46.718;7.690;2024-03-02T03:49:58;4.23;;;1.70;;
68608;SDS011;55581;46.718;7.690;2024-03-02T03:52:26;5.00;;;2.00;;
68608;SDS011;55581;46.718;7.690;2024-03-02T03:54:51;4.83;;;1.40;;
68608;SDS011;55581;46.718;7.690;2024-03-02T03:57:17;3.90;;;1.30;;
68608;SDS011;55581;46.718;7.690;2024-03-02T03:59:42;3.67;;;1.27;;
68608;SDS011;55581;46.718;7.690;2024-03-02T04:02:08;3.87;;;0.80;;
68608;SDS011;55581;46.718;7.690;2024-03-02T04:04:34;4.13;;;1.20;;
68608;SDS011;55581;46.718;7.690;2024-03-02T04:07:02;4.40;;;1.42;;
68608;SDS011;55581;46.718;7.690;2024-03-02T04:09:33;5.18;;;1.50;;
68608;SDS011;55581;46.718;7.690;2024-03-02T04:11:59;5.90;;;1.40;;
68608;SDS011;55581;46.718;7.690;2024-03-02T04:14:24;4.70;;;1.83;;
68608;SDS011;55581;46.718;7.690;2024-03-02T04:16:50;5.20;;;1.42;;
68608;SDS011;55581;46.718;7.690;2024-03-02T04:19:17;5.53;;;2.20;;
68608;SDS011;55581;46.718;7.690;2024-03-02T04:21:45;4.50;;;1.55;;
68608;SDS011;55581;46.718;7.690;2024-03-02T04:24:10;5.80;;;1.70;;
68608;SDS011;55581;46.718;7.690;2024-03-02T04:26:36;4.75;;;1.50;;
68608;SDS011;55581;46.718;7.690;2024-03-02T04:29:01;4.90;;;1.60;;
68608;SDS011;55581;46.718;7.690;2024-03-02T04:31:27;4.47;;;1.47;;
68608;SDS011;55581;46.718;7.690;2024-03-02T04:33:52;5.60;;;1.25;;
68608;SDS011;55581;46.718;7.690;2024-03-02T04:36:18;4.60;;;1.15;;
68608;SDS011;55581;46.718;7.690;2024-03-02T04:38:47;5.53;;;1.50;;
68608;SDS011;55581;46.718;7.690;2024-03-02T04:41:13;3.97;;;1.17;;
68608;SDS011;55581;46.718;7.690;2024-03-02T04:43:38;2.60;;;0.73;;
68608;SDS011;55581;46.718;7.690;2024-03-02T04:46:04;3.20;;;0.97;;
68608;SDS011;55581;46.718;7.690;2024-03-02T04:48:32;2.90;;;0.70;;
68608;SDS011;55581;46.718;7.690;2024-03-02T04:50:58;3.42;;;0.70;;
68608;SDS011;55581;46.718;7.690;2024-03-02T04:53:24;2.63;;;0.50;;
68608;SDS011;55581;46.718;7.690;2024-03-02T04:55:49;2.53;;;0.47;;
68608;SDS011;55581;46.718;7.690;2024-03-02T04:58:20;3.10;;;0.67;;
68608;SDS011;55581;46.718;7.690;2024-03-02T05:00:45;2.80;;;0.40;;
68608;SDS011;55581;46.718;7.690;2024-03-02T05:03:11;2.33;;;0.30;;
68608;SDS011;55581;46.718;7.690;2024-03-02T05:05:37;2.88;;;0.50;;
68608;SDS011;55581;46.718;7.690;2024-03-02T05:08:03;3.15;;;0.40;;
68608;SDS011;55581;46.718;7.690;2024-03-02T05:10:31;2.57;;;0.60;;
68608;SDS011;55581;46.718;7.690;2024-03-02T05:12:57;2.22;;;0.30;;
68608;SDS011;55581;46.718;7.690;2024-03-02T05:15:24;1.93;;;0.30;;
68608;SDS011;55581;46.718;7.690;2024-03-02T05:17:49;2.10;;;0.28;;
68608;SDS011;55581;46.718;7.690;2024-03-02T05:20:17;2.53;;;0.30;;
68608;SDS011;55581;46.718;7.690;2024-03-02T05:22:47;2.25;;;0.32;;
68608;SDS011;55581;46.718;7.690;2024-03-02T05:25:13;2.33;;;0.38;;
68608;SDS011;55581;46.718;7.690;2024-03-02T05:27:41;2.10;;;0.30;;
68608;SDS011;55581;46.718;7.690;2024-03-02T05:30:06;4.03;;;0.50;;
68608;SDS011;55581;46.718;7.690;2024-03-02T05:32:33;1.90;;;0.30;;
68608;SDS011;55581;46.718;7.690;2024-03-02T05:35:01;2.70;;;0.40;;
68608;SDS011;55581;46.718;7.690;2024-03-02T05:37:27;2.23;;;0.30;;
68608;SDS011;55581;46.718;7.690;2024-03-02T05:39:53;2.97;;;0.60;;
68608;SDS011;55581;46.718;7.690;2024-03-02T05:42:18;2.03;;;0.37;;
68608;SDS011;55581;46.718;7.690;2024-03-02T05:44:44;2.60;;;0.73;;
68608;SDS011;55581;46.718;7.690;2024-03-02T05:47:09;2.03;;;0.30;;
68608;SDS011;55581;46.718;7.690;2024-03-02T05:49:35;3.97;;;0.43;;
68608;SDS011;55581;46.718;7.690;2024-03-02T05:52:01;1.77;;;0.30;;
68608;SDS011;55581;46.718;7.690;2024-03-02T05:54:26;1.33;;;0.30;;
68608;SDS011;55581;46.718;7.690;2024-03-02T05:56:51;2.83;;;0.50;;
68608;SDS011;55581;46.718;7.690;2024-03-02T05:59:19;1.60;;;0.30;;
68608;SDS011;55581;46.718;7.690;2024-03-02T06:01:45;2.88;;;0.43;;
68608;SDS011;55581;46.718;7.690;2024-03-02T06:04:11;2.20;;;0.33;;
68608;SDS011;55581;46.718;7.690;2024-03-02T06:06:38;3.13;;;0.82;;
68608;SDS011;55581;46.718;7.690;2024-03-02T06:09:04;5.43;;;0.90;;
68608;SDS011;55581;46.718;7.690;2024-03-02T06:11:35;2.40;;;0.40;;
68608;SDS011;55581;46.718;7.690;2024-03-02T06:14:07;3.03;;;0.52;;
68608;SDS011;55581;46.718;7.690;2024-03-02T06:16:33;2.47;;;0.47;;
68608;SDS011;55581;46.718;7.690;2024-03-02T06:19:00;2.80;;;0.50;;
68608;SDS011;55581;46.718;7.690;2024-03-02T06:21:25;5.03;;;0.67;;
68608;SDS011;55581;46.718;7.690;2024-03-02T06:23:51;5.18;;;0.90;;
68608;SDS011;55581;46.718;7.690;2024-03-02T06:26:19;2.97;;;0.70;;
68608;SDS011;55581;46.718;7.690;2024-03-02T06:28:45;3.55;;;0.80;;
68608;SDS011;55581;46.718;7.690;2024-03-02T06:31:13;3.17;;;0.90;;
68608;SDS011;55581;46.718;7.690;2024-03-02T06:33:39;3.57;;;0.80;;
68608;SDS011;55581;46.718;7.690;2024-03-02T06:36:05;4.28;;;1.15;;
68608;SDS011;55581;46.718;7.690;2024-03-02T06:38:33;4.35;;;1.00;;
68608;SDS011;55581;46.718;7.690;2024-03-02T06:40:59;6.30;;;1.10;;
68608;SDS011;55581;46.718;7.690;2024-03-02T06:43:24;5.03;;;1.05;;
68608;SDS011;55581;46.718;7.690;2024-03-02T06:45:54;5.28;;;1.42;;
68608;SDS011;55581;46.718;7.690;2024-03-02T06:48:24;4.43;;;0.90;;
68608;SDS011;55581;46.718;7.690;2024-03-02T06:50:53;5.78;;;0.90;;
68608;SDS011;55581;46.718;7.690;2024-03-02T06:53:19;2.43;;;0.50;;
68608;SDS011;55581;46.718;7.690;2024-03-02T06:55:45;2.50;;;0.45;;
68608;SDS011;55581;46.718;7.690;2024-03-02T06:58:14;2.35;;;0.40;;
68608;SDS011;55581;46.718;7.690;2024-03-02T07:00:43;3.08;;;0.65;;
68608;SDS011;55581;46.718;7.690;2024-03-02T07:03:12;2.30;;;0.40;;
68608;SDS011;55581;46.718;7.690;2024-03-02T07:05:38;2.72;;;0.35;;
68608;SDS011;55581;46.718;7.690;2024-03-02T07:08:06;3.83;;;0.60;;
68608;SDS011;55581;46.718;7.690;2024-03-02T07:10:32;2.88;;;0.50;;
68608;SDS011;55581;46.718;7.690;2024-03-02T07:13:00;2.85;;;0.47;;
68608;SDS011;55581;46.718;7.690;2024-03-02T07:15:26;2.77;;;0.53;;
68608;SDS011;55581;46.718;7.690;2024-03-02T07:18:09;3.60;;;0.60;;
68608;SDS011;55581;46.718;7.690;2024-03-02T07:20:34;2.70;;;0.60;;
68608;SDS011;55581;46.718;7.690;2024-03-02T07:23:00;2.73;;;0.57;;
68608;SDS011;55581;46.718;7.690;2024-03-02T07:25:25;3.17;;;0.57;;
68608;SDS011;55581;46.718;7.690;2024-03-02T07:27:50;2.77;;;0.50;;
68608;SDS011;55581;46.718;7.690;2024-03-02T07:30:16;2.92;;;0.50;;
68608;SDS011;55581;46.718;7.690;2024-03-02T07:32:44;3.30;;;0.70;;
68608;SDS011;55581;46.718;7.690;2024-03-02T07:35:11;3.05;;;0.70;;
68608;SDS011;55581;46.718;7.690;2024-03-02T07:37:42;3.42;;;0.40;;
68608;SDS011;55581;46.718;7.690;2024-03-02T07:40:08;2.97;;;0.38;;
68608;SDS011;55581;46.718;7.690;2024-03-02T07:42:36;3.90;;;0.40;;
68608;SDS011;55581;46.718;7.690;2024-03-02T07:45:03;2.60;;;0.47;;
68608;SDS011;55581;46.718;7.690;2024-03-02T07:47:30;2.67;;;0.40;;
68608;SDS011;55581;46.718;7.690;2024-03-02T07:49:55;1.67;;;0.37;;
68608;SDS011;55581;46.718;7.690;2024-03-02T07:52:23;1.92;;;0.30;;
68608;SDS011;55581;46.718;7.690;2024-03-02T07:54:48;4.10;;;0.47;;
68608;SDS011;55581;46.718;7.690;2024-03-02T07:57:16;2.92;;;0.50;;
68608;SDS011;55581;46.718;7.690;2024-03-02T07:59:41;1.90;;;0.30;;
68608;SDS011;55581;46.718;7.690;2024-03-02T08:02:08;1.77;;;0.20;;
68608;SDS011;55581;46.718;7.690;2024-03-02T08:04:33;2.35;;;0.40;;
68608;SDS011;55581;46.718;7.690;2024-03-02T08:06:59;2.47;;;0.40;;
68608;SDS011;55581;46.718;7.690;2024-03-02T08:09:24;2.10;;;0.30;;
68608;SDS011;55581;46.718;7.690;2024-03-02T08:11:50;2.67;;;0.40;;
68608;SDS011;55581;46.718;7.690;2024-03-02T08:14:16;2.83;;;0.30;;
68608;SDS011;55581;46.718;7.690;2024-03-02T08:16:41;6.88;;;0.40;;
68608;SDS011;55581;46.718;7.690;2024-03-02T08:19:07;2.33;;;0.30;;
68608;SDS011;55581;46.718;7.690;2024-03-02T08:21:34;2.63;;;0.50;;
68608;SDS011;55581;46.718;7.690;2024-03-02T08:24:02;2.88;;;0.50;;
68608;SDS011;55581;46.718;7.690;2024-03-02T08:26:28;2.13;;;0.37;;
68608;SDS011;55581;46.718;7.690;2024-03-02T08:28:54;1.67;;;0.32;;
68608;SDS011;55581;46.718;7.690;2024-03-02T08:31:20;1.92;;;0.30;;
68608;SDS011;55581;46.718;7.690;2024-03-02T08:33:45;2.17;;;0.30;;
68608;SDS011;55581;46.718;7.690;2024-03-02T08:36:11;1.93;;;0.40;;
68608;SDS011;55581;46.718;7.690;2024-03-02T08:38:39;1.83;;;0.30;;
68608;SDS011;55581;46.718;7.690;2024-03-02T08:41:04;1.40;;;0.20;;
68608;SDS011;55581;46.718;7.690;2024-03-02T08:43:30;3.13;;;0.40;;
68608;SDS011;55581;46.718;7.690;2024-03-02T08:45:56;2.20;;;0.50;;
68608;SDS011;55581;46.718;7.690;2024-03-02T08:48:21;3.23;;;0.50;;
68608;SDS011;55581;46.718;7.690;2024-03-02T08:50:46;3.00;;;0.60;;
68608;SDS011;55581;46.718;7.690;2024-03-02T08:53:12;1.90;;;0.40;;
68608;SDS011;55581;46.718;7.690;2024-03-02T08:55:39;2.23;;;0.50;;
68608;SDS011;55581;46.718;7.690;2024-03-02T08:58:05;1.67;;;0.40;;
68608;SDS011;55581;46.718;7.690;2024-03-02T09:00:31;4.17;;;0.60;;
68608;SDS011;55581;46.718;7.690;2024-03-02T09:02:56;2.17;;;0.30;;
68608;SDS011;55581;46.718;7.690;2024-03-02T09:05:21;3.27;;;0.43;;
68608;SDS011;55581;46.718;7.690;2024-03-02T09:07:47;2.53;;;0.50;;
68608;SDS011;55581;46.718;7.690;2024-03-02T09:10:12;3.10;;;0.63;;
68608;SDS011;55581;46.718;7.690;2024-03-02T09:12:38;4.45;;;0.70;;
68608;SDS011;55581;46.718;7.690;2024-03-02T09:15:06;3.97;;;0.57;;
68608;SDS011;55581;46.718;7.690;2024-03-02T09:17:31;1.83;;;0.45;;
68608;SDS011;55581;46.718;7.690;2024-03-02T09:19:57;2.60;;;0.57;;
68608;SDS011;55581;46.718;7.690;2024-03-02T09:22:22;3.03;;;0.50;;
68608;SDS011;55581;46.718;7.690;2024-03-02T09:24:50;2.92;;;0.60;;
68608;SDS011;55581;46.718;7.690;2024-03-02T09:27:15;2.40;;;0.70;;
68608;SDS011;55581;46.718;7.690;2024-03-02T09:29:43;2.63;;;0.40;;
68608;SDS011;55581;46.718;7.690;2024-03-02T09:32:14;2.85;;;0.45;;
68608;SDS011;55581;46.718;7.690;2024-03-02T09:34:40;2.30;;;0.60;;
68608;SDS011;55581;46.718;7.690;2024-03-02T09:37:06;2.77;;;0.70;;
68608;SDS011;55581;46.718;7.690;2024-03-02T09:39:34;3.35;;;0.80;;
68608;SDS011;55581;46.718;7.690;2024-03-02T09:41:59;2.00;;;0.40;;
68608;SDS011;55581;46.718;7.690;2024-03-02T09:44:25;2.20;;;0.50;;
68608;SDS011;55581;46.718;7.690;2024-03-02T09:46:51;3.17;;;0.70;;
68608;SDS011;55581;46.718;7.690;2024-03-02T09:49:17;2.38;;;0.57;;
68608;SDS011;55581;46.718;7.690;2024-03-02T09:51:46;3.23;;;0.70;;
68608;SDS011;55581;46.718;7.690;2024-03-02T09:54:13;3.05;;;0.52;;
68608;SDS011;55581;46.718;7.690;2024-03-02T09:56:40;2.78;;;0.50;;
68608;SDS011;55581;46.718;7.690;2024-03-02T09:59:05;3.43;;;0.60;;
68608;SDS011;55581;46.718;7.690;2024-03-02T10:01:31;2.77;;;0.53;;
68608;SDS011;55581;46.718;7.690;2024-03-02T10:03:58;1.42;;;0.28;;
68608;SDS011;55581;46.718;7.690;2024-03-02T10:06:25;2.57;;;0.40;;
68608;SDS011;55581;46.718;7.690;2024-03-02T10:08:51;3.03;;;0.68;;
68608;SDS011;55581;46.718;7.690;2024-03-02T10:14:13;2.05;;;0.60;;
68608;SDS011;55581;46.718;7.690;2024-03-02T10:16:39;2.53;;;0.38;;
68608;SDS011;55581;46.718;7.690;2024-03-02T10:19:23;3.17;;;0.50;;
68608;SDS011;55581;46.718;7.690;2024-03-02T10:21:58;2.45;;;0.50;;
68608;SDS011;55581;46.718;7.690;2024-03-02T10:24:24;2.42;;;0.40;;
68608;SDS011;55581;46.718;7.690;2024-03-02T10:26:50;3.00;;;0.45;;
68608;SDS011;55581;46.718;7.690;2024-03-02T10:29:17;1.88;;;0.43;;
68608;SDS011;55581;46.718;7.690;2024-03-02T10:31:43;2.20;;;0.50;;
68608;SDS011;55581;46.718;7.690;2024-03-02T10:34:11;2.00;;;0.40;;
68608;SDS011;55581;46.718;7.690;2024-03-02T10:36:37;2.65;;;0.63;;
68608;SDS011;55581;46.718;7.690;2024-03-02T10:39:06;2.00;;;0.40;;
68608;SDS011;55581;46.718;7.690;2024-03-02T10:41:38;1.83;;;0.50;;
68608;SDS011;55581;46.718;7.690;2024-03-02T10:44:04;3.33;;;0.60;;
68608;SDS011;55581;46.718;7.690;2024-03-02T10:46:35;2.40;;;0.50;;
68608;SDS011;55581;46.718;7.690;2024-03-02T10:49:02;3.13;;;0.50;;
68608;SDS011;55581;46.718;7.690;2024-03-02T10:51:32;2.33;;;0.50;;
68608;SDS011;55581;46.718;7.690;2024-03-02T10:53:59;2.03;;;0.35;;
68608;SDS011;55581;46.718;7.690;2024-03-02T10:56:41;2.23;;;0.43;;
68608;SDS011;55581;46.718;7.690;2024-03-02T11:01:50;2.10;;;0.50;;
68608;SDS011;55581;46.718;7.690;2024-03-02T11:04:18;2.40;;;0.63;;
68608;SDS011;55581;46.718;7.690;2024-03-02T11:06:48;3.75;;;0.63;;
68608;SDS011;55581;46.718;7.690;2024-03-02T11:09:14;3.13;;;0.60;;
68608;SDS011;55581;46.718;7.690;2024-03-02T11:11:42;2.20;;;0.60;;
68608;SDS011;55581;46.718;7.690;2024-03-02T11:14:13;2.50;;;0.70;;
68608;SDS011;55581;46.718;7.690;2024-03-02T11:16:41;2.22;;;0.50;;
68608;SDS011;55581;46.718;7.690;2024-03-02T11:19:14;2.25;;;0.50;;
68608;SDS011;55581;46.718;7.690;2024-03-02T11:21:41;2.67;;;0.47;;
68608;SDS011;55581;46.718;7.690;2024-03-02T11:26:49;3.10;;;0.70;;
68608;SDS011;55581;46.718;7.690;2024-03-02T11:32:00;2.90;;;0.80;;
68608;SDS011;55581;46.718;7.690;2024-03-02T11:34:35;3.13;;;0.67;;
68608;SDS011;55581;46.718;7.690;2024-03-02T11:37:04;2.13;;;0.40;;
68608;SDS011;55581;46.718;7.690;2024-03-02T11:39:30;3.78;;;0.70;;
68608;SDS011;55581;46.718;7.690;2024-03-02T11:41:56;1.92;;;0.50;;
68608;SDS011;55581;46.718;7.690;2024-03-02T11:44:22;2.23;;;0.50;;
68608;SDS011;55581;46.718;7.690;2024-03-02T11:47:05;2.67;;;0.75;;
68608;SDS011;55581;46.718;7.690;2024-03-02T11:49:38;2.80;;;0.60;;
68608;SDS011;55581;46.718;7.690;2024-03-02T11:52:07;2.60;;;0.50;;
68608;SDS011;55581;46.718;7.690;2024-03-02T11:54:34;2.90;;;0.70;;
68608;SDS011;55581;46.718;7.690;2024-03-02T11:57:04;2.17;;;0.53;;
68608;SDS011;55581;46.718;7.690;2024-03-02T11:59:29;2.88;;;0.70;;
68608;SDS011;55581;46.718;7.690;2024-03-02T12:01:55;3.15;;;0.60;;
68608;SDS011;55581;46.718;7.690;2024-03-02T12:04:24;2.45;;;0.77;;
68608;SDS011;55581;46.718;7.690;2024-03-02T12:06:55;3.17;;;0.70;;
68608;SDS011;55581;46.718;7.690;2024-03-02T12:09:26;3.33;;;0.70;;
68608;SDS011;55581;46.718;7.690;2024-03-02T12:12:05;2.65;;;0.65;;
68608;SDS011;55581;46.718;7.690;2024-03-02T12:14:32;2.83;;;0.75;;
68608;SDS011;55581;46.718;7.690;2024-03-02T12:16:59;2.58;;;0.70;;
68608;SDS011;55581;46.718;7.690;2024-03-02T12:19:27;10.90;;;4.60;;
68608;SDS011;55581;46.718;7.690;2024-03-02T12:21:55;15.60;;;7.07;;
68608;SDS011;55581;46.718;7.690;2024-03-02T12:24:24;4.75;;;1.77;;
68608;SDS011;55581;46.718;7.690;2024-03-02T12:26:54;4.20;;;1.23;;
68608;SDS011;55581;46.718;7.690;2024-03-02T12:29:23;3.97;;;1.20;;
68608;SDS011;55581;46.718;7.690;2024-03-02T12:31:49;3.93;;;1.40;;
68608;SDS011;55581;46.718;7.690;2024-03-02T12:34:18;3.65;;;1.05;;
68608;SDS011;55581;46.718;7.690;2024-03-02T12:36:45;3.55;;;1.10;;
68608;SDS011;55581;46.718;7.690;2024-03-02T12:39:14;9.32;;;3.15;;
68608;SDS011;55581;46.718;7.690;2024-03-02T12:41:43;6.55;;;3.47;;
68608;SDS011;55581;46.718;7.690;2024-03-02T12:44:08;6.53;;;3.77;;
68608;SDS011;55581;46.718;7.690;2024-03-02T12:46:34;6.67;;;2.77;;
68608;SDS011;55581;46.718;7.690;2024-03-02T12:49:11;6.10;;;2.53;;
68608;SDS011;55581;46.718;7.690;2024-03-02T12:51:39;4.47;;;0.70;;
68608;SDS011;55581;46.718;7.690;2024-03-02T12:54:08;3.65;;;0.65;;
68608;SDS011;55581;46.718;7.690;2024-03-02T12:56:35;7.22;;;3.55;;
68608;SDS011;55581;46.718;7.690;2024-03-02T12:59:04;3.63;;;1.43;;
68608;SDS011;55581;46.718;7.690;2024-03-02T13:01:30;4.43;;;1.50;;
68608;SDS011;55581;46.718;7.690;2024-03-02T13:03:57;6.30;;;2.70;;
68608;SDS011;55581;46.718;7.690;2024-03-02T13:06:23;4.22;;;1.98;;
68608;SDS011;55581;46.718;7.690;2024-03-02T13:08:50;4.73;;;1.57;;
68608;SDS011;55581;46.718;7.690;2024-03-02T13:11:15;4.65;;;1.90;;
68608;SDS011;55581;46.718;7.690;2024-03-02T13:13:41;2.90;;;0.98;;
68608;SDS011;55581;46.718;7.690;2024-03-02T13:16:08;4.10;;;0.98;;
68608;SDS011;55581;46.718;7.690;2024-03-02T13:18:35;4.60;;;1.40;;
68608;SDS011;55581;46.718;7.690;2024-03-02T13:21:00;5.00;;;2.50;;
68608;SDS011;55581;46.718;7.690;2024-03-02T13:23:26;12.57;;;5.50;;
68608;SDS011;55581;46.718;7.690;2024-03-02T13:25:51;8.30;;;3.30;;
68608;SDS011;55581;46.718;7.690;2024-03-02T13:28:16;3.00;;;1.00;;
68608;SDS011;55581;46.718;7.690;2024-03-02T13:30:42;5.30;;;1.23;;
68608;SDS011;55581;46.718;7.690;2024-03-02T13:33:08;4.80;;;2.33;;
68608;SDS011;55581;46.718;7.690;2024-03-02T13:35:33;4.18;;;1.98;;
68608;SDS011;55581;46.718;7.690;2024-03-02T13:37:58;3.00;;;0.90;;
68608;SDS011;55581;46.718;7.690;2024-03-02T13:40:24;3.50;;;1.53;;
68608;SDS011;55581;46.718;7.690;2024-03-02T13:42:49;4.40;;;2.23;;
68608;SDS011;55581;46.718;7.690;2024-03-02T13:45:18;2.90;;;0.98;;
68608;SDS011;55581;46.718;7.690;2024-03-02T13:47:44;4.17;;;1.20;;
68608;SDS011;55581;46.718;7.690;2024-03-02T13:50:09;5.20;;;2.10;;
68608;SDS011;55581;46.718;7.690;2024-03-02T13:52:35;7.55;;;3.65;;
68608;SDS011;55581;46.718;7.690;2024-03-02T13:55:00;4.47;;;1.93;;
68608;SDS011;55581;46.718;7.690;2024-03-02T13:57:26;5.00;;;2.47;;
68608;SDS011;55581;46.718;7.690;2024-03-02T13:59:51;10.10;;;5.30;;
68608;SDS011;55581;46.718;7.690;2024-03-02T14:02:17;5.10;;;2.07;;
68608;SDS011;55581;46.718;7.690;2024-03-02T14:04:43;7.00;;;1.95;;
68608;SDS011;55581;46.718;7.690;2024-03-02T14:07:08;5.70;;;2.20;;
68608;SDS011;55581;46.718;7.690;2024-03-02T14:09:35;4.25;;;1.60;;
68608;SDS011;55581;46.718;7.690;2024-03-02T14:12:01;4.13;;;1.20;;
68608;SDS011;55581;46.718;7.690;2024-03-02T14:14:27;3.93;;;0.57;;
68608;SDS011;55581;46.718;7.690;2024-03-02T14:16:53;1.90;;;0.60;;
68608;SDS011;55581;46.718;7.690;2024-03-02T14:19:20;3.00;;;0.70;;
68608;SDS011;55581;46.718;7.690;2024-03-02T14:21:48;4.38;;;1.05;;
68608;SDS011;55581;46.718;7.690;2024-03-02T14:24:14;5.33;;;1.70;;
68608;SDS011;55581;46.718;7.690;2024-03-02T14:26:41;10.70;;;6.37;;
68608;SDS011;55581;46.718;7.690;2024-03-02T14:29:10;6.68;;;3.45;;
68608;SDS011;55581;46.718;7.690;2024-03-02T14:31:36;3.53;;;0.95;;
68608;SDS011;55581;46.718;7.690;2024-03-02T14:34:02;4.70;;;1.87;;
68608;SDS011;55581;46.718;7.690;2024-03-02T14:36:29;4.10;;;1.83;;
68608;SDS011;55581;46.718;7.690;2024-03-02T14:38:55;3.97;;;0.93;;
68608;SDS011;55581;46.718;7.690;2024-03-02T14:41:20;4.20;;;1.90;;
68608;SDS011;55581;46.718;7.690;2024-03-02T14:43:48;5.47;;;2.50;;
68608;SDS011;55581;46.718;7.690;2024-03-02T14:46:14;4.10;;;1.88;;
68608;SDS011;55581;46.718;7.690;2024-03-02T14:48:41;3.80;;;1.83;;
68608;SDS011;55581;46.718;7.690;2024-03-02T14:51:09;5.10;;;2.50;;
68608;SDS011;55581;46.718;7.690;2024-03-02T14:53:35;4.40;;;1.25;;
68608;SDS011;55581;46.718;7.690;2024-03-02T14:56:01;4.43;;;1.23;;
68608;SDS011;55581;46.718;7.690;2024-03-02T14:58:29;4.95;;;1.95;;
68608;SDS011;55581;46.718;7.690;2024-03-02T15:00:57;3.23;;;0.90;;
68608;SDS011;55581;46.718;7.690;2024-03-02T15:03:23;4.28;;;1.40;;
68608;SDS011;55581;46.718;7.690;2024-03-02T15:05:48;4.80;;;2.10;;